createdAt,value
2023-05-18T00:02:26.446Z,16.00
2023-05-18T00:05:12.272Z,15.32
2023-05-18T00:07:57.538Z,17.00
2023-05-18T00:10:43.023Z,18.15
2023-05-18T00:13:28.330Z,17.77
2023-05-18T00:16:15.944Z,17.77
2023-05-18T00:19:02.617Z,18.80
2023-05-18T00:21:48.578Z,18.42
2023-05-18T00:24:36.874Z,18.33
2023-05-18T00:27:22.587Z,17.85
2023-05-18T00:30:08.294Z,18.58
2023-05-18T00:32:54.950Z,15.70
2023-05-18T00:35:40.912Z,15.32
2023-05-18T00:38:26.377Z,17.00
2023-05-18T00:41:11.712Z,17.25
2023-05-18T00:43:58.915Z,17.02
2023-05-18T00:46:44.530Z,16.48
2023-05-18T00:49:29.996Z,15.23
2023-05-18T00:52:16.264Z,14.50
2023-05-18T00:55:02.242Z,15.95
2023-05-18T00:57:48.269Z,15.40
2023-05-18T01:00:37.588Z,14.52
2023-05-18T01:03:23.510Z,14.77
2023-05-18T01:06:10.356Z,14.30
2023-05-18T01:08:56.027Z,13.73
2023-05-18T01:12:06.052Z,14.02
2023-05-18T01:15:08.831Z,12.95
2023-05-18T01:18:34.252Z,12.65
2023-05-18T01:21:50.568Z,12.75
2023-05-18T01:24:58.043Z,11.60
2023-05-18T01:27:46.612Z,11.43
2023-05-18T01:30:36.124Z,11.55
2023-05-18T01:33:21.702Z,12.25
2023-05-18T01:36:07.945Z,12.30
2023-05-18T01:38:55.529Z,13.80
2023-05-18T01:42:06.838Z,14.48
2023-05-18T01:44:56.653Z,15.32
2023-05-18T01:47:45.211Z,17.80
2023-05-18T01:50:37.963Z,16.75
2023-05-18T01:53:27.963Z,13.88
2023-05-18T01:56:14.524Z,15.48
2023-05-18T01:59:00.690Z,14.52
2023-05-18T02:01:46.205Z,14.13
2023-05-18T02:04:35.256Z,11.98
2023-05-18T02:07:20.708Z,12.30
2023-05-18T02:10:07.528Z,11.30
2023-05-18T02:12:53.938Z,10.73
2023-05-18T02:15:39.867Z,11.57
2023-05-18T02:18:26.865Z,11.50
2023-05-18T02:21:13.721Z,12.20
2023-05-18T02:23:59.333Z,11.43
2023-05-18T02:26:44.859Z,12.60
2023-05-18T02:29:31.428Z,13.30
2023-05-18T02:32:16.796Z,14.00
2023-05-18T02:35:08.475Z,13.65
2023-05-18T02:37:55.959Z,14.07
2023-05-18T02:40:43.032Z,13.77
2023-05-18T02:43:28.516Z,13.25
2023-05-18T02:46:14.425Z,12.55
2023-05-18T02:48:59.842Z,11.75
2023-05-18T02:51:45.026Z,11.35
2023-05-18T02:54:32.050Z,11.45
2023-05-18T02:57:18.370Z,11.05
2023-05-18T03:00:16.939Z,10.95
2023-05-18T03:03:04.452Z,12.10
2023-05-18T03:05:52.929Z,11.75
2023-05-18T03:08:41.251Z,10.05
2023-05-18T03:11:28.403Z,10.50
2023-05-18T03:14:14.108Z,10.18
2023-05-18T03:17:00.516Z,10.23
2023-05-18T03:19:46.523Z,10.77
2023-05-18T03:22:31.887Z,10.38
2023-05-18T03:25:17.250Z,9.98
2023-05-18T03:28:05.783Z,10.65
2023-05-18T03:30:51.635Z,9.68
2023-05-18T03:33:37.170Z,10.50
2023-05-18T03:36:23.065Z,9.75
2023-05-18T03:39:08.588Z,9.13
2023-05-18T03:41:54.179Z,8.45
2023-05-18T03:44:39.450Z,8.75
2023-05-18T03:47:25.242Z,8.55
2023-05-18T03:50:11.166Z,9.73
2023-05-18T03:52:56.930Z,9.35
2023-05-18T03:55:43.270Z,8.90
2023-05-18T03:58:29.297Z,9.15
2023-05-18T04:01:18.753Z,12.15
2023-05-18T04:04:04.736Z,13.55
2023-05-18T04:06:53.680Z,13.38
2023-05-18T04:09:39.592Z,12.10
2023-05-18T04:12:25.516Z,10.50
2023-05-18T04:15:14.788Z,9.45
2023-05-18T04:18:02.119Z,8.95
2023-05-18T04:20:47.522Z,9.82
2023-05-18T04:23:38.882Z,12.10
2023-05-18T04:26:25.002Z,15.07
2023-05-18T04:29:10.951Z,15.55
2023-05-18T04:32:00.936Z,16.38
2023-05-18T04:34:49.692Z,16.80
2023-05-18T04:37:35.510Z,15.95
2023-05-18T04:40:22.733Z,16.95
2023-05-18T04:43:10.231Z,18.98
2023-05-18T04:45:58.171Z,16.63
2023-05-18T04:48:44.230Z,18.40
2023-05-18T04:51:30.583Z,16.50
2023-05-18T04:54:17.472Z,16.80
2023-05-18T04:57:03.674Z,14.77
2023-05-18T04:59:49.223Z,17.33
2023-05-18T05:02:34.740Z,17.30
2023-05-18T05:05:21.394Z,15.27
2023-05-18T05:08:07.361Z,16.30
2023-05-18T05:10:52.437Z,15.63
2023-05-18T05:13:38.281Z,15.40
2023-05-18T05:16:23.812Z,14.55
2023-05-18T05:19:09.424Z,17.13
2023-05-18T05:21:55.105Z,15.85
2023-05-18T05:24:40.542Z,17.40
2023-05-18T05:27:26.310Z,16.92
2023-05-18T05:30:12.287Z,14.07
2023-05-18T05:32:59.860Z,14.00
2023-05-18T05:35:46.573Z,13.85
2023-05-18T05:38:32.990Z,13.55
2023-05-18T05:41:19.600Z,11.90
2023-05-18T05:44:05.077Z,12.55
2023-05-18T05:46:50.601Z,12.80
2023-05-18T05:49:36.814Z,13.95
2023-05-18T05:52:22.612Z,12.27
2023-05-18T05:55:07.986Z,11.80
2023-05-18T05:57:55.168Z,10.48
2023-05-18T06:00:40.745Z,12.60
2023-05-18T06:03:26.804Z,10.07
2023-05-18T06:06:13.501Z,9.10
2023-05-18T06:08:59.620Z,10.70
2023-05-18T06:11:44.976Z,12.18
2023-05-18T06:14:30.914Z,13.18
2023-05-18T06:17:16.649Z,15.65
2023-05-18T06:20:04.485Z,15.57
2023-05-18T06:22:49.866Z,16.38
2023-05-18T06:26:04.294Z,16.10
2023-05-18T06:28:49.873Z,17.15
2023-05-18T06:31:59.261Z,17.30
2023-05-18T06:34:56.634Z,18.20
2023-05-18T06:37:42.577Z,16.15
2023-05-18T06:40:28.730Z,15.90
2023-05-18T06:43:13.975Z,17.15
2023-05-18T06:46:08.115Z,15.82
2023-05-18T06:48:58.486Z,16.05
2023-05-18T06:51:43.953Z,15.70
2023-05-18T06:54:30.679Z,17.65
2023-05-18T06:57:18.289Z,15.85
2023-05-18T07:00:07.176Z,16.83
2023-05-18T07:02:53.699Z,20.42
2023-05-18T07:05:39.927Z,25.08
2023-05-18T07:08:25.924Z,40.13
2023-05-18T07:11:11.119Z,33.97
2023-05-18T07:13:56.618Z,34.10
2023-05-18T07:16:44.042Z,33.05
2023-05-18T07:19:29.360Z,32.65
2023-05-18T07:22:14.829Z,26.48
2023-05-18T07:25:00.821Z,26.63
2023-05-18T07:27:46.448Z,26.65
2023-05-18T07:30:32.115Z,25.52
2023-05-18T07:33:17.589Z,24.67
2023-05-18T07:36:03.680Z,23.77
2023-05-18T07:38:54.866Z,23.33
2023-05-18T07:41:40.399Z,22.38
2023-05-18T07:44:25.831Z,22.17
2023-05-18T07:47:11.748Z,24.20
2023-05-18T07:49:57.111Z,22.60
2023-05-18T07:52:42.526Z,24.00
2023-05-18T07:55:27.889Z,25.83
2023-05-18T07:58:13.513Z,22.27
2023-05-18T08:00:59.179Z,22.15
2023-05-18T08:03:44.595Z,23.55
2023-05-18T08:06:30.471Z,23.42
2023-05-18T08:09:15.943Z,24.17
2023-05-18T08:12:01.884Z,22.80
2023-05-18T08:14:47.132Z,23.63
2023-05-18T08:17:32.361Z,22.35
2023-05-18T08:20:18.125Z,21.75
2023-05-18T08:23:03.445Z,22.80
2023-05-18T08:25:48.780Z,24.08
2023-05-18T08:28:34.508Z,22.05
2023-05-18T08:31:20.247Z,22.88
2023-05-18T08:34:06.479Z,22.50
2023-05-18T08:36:52.578Z,20.42
2023-05-18T08:39:38.317Z,20.50
2023-05-18T08:42:46.077Z,21.58
2023-05-18T08:45:48.711Z,21.85
2023-05-18T08:48:36.450Z,20.27
2023-05-18T08:51:22.729Z,21.67
2023-05-18T08:54:10.772Z,21.38
2023-05-18T08:56:57.195Z,18.42
2023-05-18T08:59:44.479Z,16.45
2023-05-18T09:02:33.556Z,14.10
2023-05-18T09:05:21.204Z,12.10
2023-05-18T09:08:07.701Z,10.35
2023-05-18T09:10:58.440Z,12.40
2023-05-18T09:13:44.925Z,12.27
2023-05-18T09:16:30.696Z,11.30
2023-05-18T09:19:16.486Z,10.57
2023-05-18T09:22:02.318Z,10.98
2023-05-18T09:24:49.124Z,11.02
2023-05-18T09:27:34.497Z,11.63
2023-05-18T09:30:20.051Z,11.60
2023-05-18T09:33:05.428Z,10.88
2023-05-18T09:35:51.887Z,10.27
2023-05-18T09:38:39.354Z,11.93
2023-05-18T09:41:27.251Z,15.18
2023-05-18T09:44:12.788Z,16.45
2023-05-18T09:46:58.438Z,17.77
2023-05-18T09:49:43.735Z,18.20
2023-05-18T09:52:29.979Z,18.40
2023-05-18T09:55:20.062Z,18.60
2023-05-18T09:58:08.103Z,18.52
2023-05-18T10:00:56.990Z,17.45
2023-05-18T10:03:45.174Z,17.67
2023-05-18T10:06:31.772Z,14.02
2023-05-18T10:09:17.886Z,14.85
2023-05-18T10:12:03.403Z,14.77
2023-05-18T10:14:49.467Z,13.43
2023-05-18T10:17:37.828Z,12.27
2023-05-18T10:20:24.548Z,12.10
2023-05-18T10:23:11.890Z,13.65
2023-05-18T10:25:58.066Z,15.32
2023-05-18T10:28:47.582Z,14.88
2023-05-18T10:31:37.295Z,14.50
2023-05-18T10:34:24.702Z,14.60
2023-05-18T10:37:12.109Z,13.25
2023-05-18T10:40:00.196Z,13.52
2023-05-18T10:42:46.641Z,14.52
2023-05-18T10:45:36.036Z,13.98
2023-05-18T10:48:23.252Z,14.73
2023-05-18T10:51:09.144Z,16.15
2023-05-18T10:53:56.234Z,12.90
2023-05-18T10:56:46.917Z,14.55
2023-05-18T10:59:33.248Z,13.05
2023-05-18T11:02:20.562Z,12.70
2023-05-18T11:05:07.477Z,12.73
2023-05-18T11:08:05.795Z,8.57
2023-05-18T11:11:00.346Z,7.93
2023-05-18T11:13:49.754Z,6.47
2023-05-18T11:16:36.746Z,5.57
2023-05-18T11:19:26.418Z,5.85
2023-05-18T11:22:12.720Z,5.10
2023-05-18T11:24:58.061Z,4.70
2023-05-18T11:27:43.592Z,4.78
2023-05-18T11:30:45.005Z,4.53
2023-05-18T11:33:30.831Z,3.92
2023-05-18T11:36:23.298Z,4.35
2023-05-18T11:39:11.078Z,4.03
2023-05-18T11:42:01.451Z,4.75
2023-05-18T11:44:56.770Z,4.95
2023-05-18T11:47:42.382Z,4.85
2023-05-18T11:50:31.215Z,4.95
2023-05-18T11:53:17.429Z,4.20
2023-05-18T11:56:02.953Z,4.70
2023-05-18T11:59:12.719Z,4.53
2023-05-18T12:02:01.236Z,3.47
2023-05-18T12:04:50.609Z,3.25
2023-05-18T12:07:37.189Z,3.60
2023-05-18T12:10:23.172Z,3.22
2023-05-18T12:13:09.144Z,3.30
2023-05-18T12:15:58.834Z,3.67
2023-05-18T12:18:52.800Z,3.45
2023-05-18T12:21:38.380Z,4.13
2023-05-18T12:24:23.683Z,4.78
2023-05-18T12:27:11.639Z,3.92
2023-05-18T12:29:57.475Z,4.43
2023-05-18T12:32:48.511Z,4.15
2023-05-18T12:35:34.263Z,5.00
2023-05-18T12:38:20.198Z,4.85
2023-05-18T12:41:06.632Z,4.30
2023-05-18T12:43:55.144Z,4.22
2023-05-18T12:46:43.215Z,3.92
2023-05-18T12:49:28.719Z,3.53
2023-05-18T12:52:16.645Z,4.43
2023-05-18T12:55:04.905Z,3.88
2023-05-18T12:58:02.098Z,3.00
2023-05-18T13:00:48.586Z,3.10
2023-05-18T13:03:35.162Z,3.28
2023-05-18T13:06:20.746Z,2.80
2023-05-18T13:09:12.310Z,3.28
2023-05-18T13:12:07.838Z,3.42
2023-05-18T13:14:53.683Z,3.00
2023-05-18T13:17:48.528Z,3.70
2023-05-18T13:20:53.014Z,3.83
2023-05-18T13:23:39.466Z,3.08
2023-05-18T13:26:25.605Z,2.97
2023-05-18T13:29:11.161Z,2.53
2023-05-18T13:31:56.790Z,2.80
2023-05-18T13:34:43.099Z,2.45
2023-05-18T13:37:28.544Z,2.45
2023-05-18T13:40:14.310Z,2.20
2023-05-18T13:43:00.509Z,2.53
2023-05-18T13:45:47.339Z,2.75
2023-05-18T13:48:32.801Z,2.75
2023-05-18T13:51:18.343Z,3.42
2023-05-18T13:54:04.468Z,2.42
2023-05-18T13:56:50.150Z,2.40
2023-05-18T13:59:35.610Z,2.20
2023-05-18T14:02:21.979Z,2.38
2023-05-18T14:05:10.943Z,2.80
2023-05-18T14:07:56.911Z,2.72
2023-05-18T14:10:42.512Z,2.10
2023-05-18T14:13:28.414Z,2.53
2023-05-18T14:16:13.948Z,2.78
2023-05-18T14:18:59.197Z,2.88
2023-05-18T14:21:44.538Z,2.67
2023-05-18T14:24:29.683Z,2.97
2023-05-18T14:27:15.529Z,2.65
2023-05-18T14:31:36.423Z,2.63
2023-05-18T14:34:22.342Z,2.67
2023-05-18T14:37:07.728Z,2.88
2023-05-18T14:39:53.207Z,3.15
2023-05-18T14:42:38.517Z,3.42
2023-05-18T14:45:24.096Z,3.10
2023-05-18T14:48:10.842Z,3.25
2023-05-18T14:50:56.711Z,3.40
2023-05-18T14:53:43.370Z,3.70
2023-05-18T14:56:29.897Z,3.38
2023-05-18T14:59:15.671Z,3.70
2023-05-18T15:02:01.275Z,3.75
2023-05-18T15:04:46.603Z,3.35
2023-05-18T15:07:31.923Z,3.55
2023-05-18T15:10:17.300Z,3.28
2023-05-18T15:13:02.839Z,3.60
2023-05-18T15:15:49.492Z,2.92
2023-05-18T15:18:34.862Z,2.70
2023-05-18T15:21:20.584Z,2.92
2023-05-18T15:24:06.540Z,3.13
2023-05-18T15:26:52.022Z,3.40
2023-05-18T15:29:37.782Z,3.78
2023-05-18T15:32:23.823Z,3.28
2023-05-18T15:35:10.124Z,2.90
2023-05-18T15:37:56.766Z,3.40
2023-05-18T15:40:46.691Z,3.95
2023-05-18T15:43:32.252Z,3.60
2023-05-18T15:46:18.808Z,3.67
2023-05-18T15:49:04.246Z,4.07
2023-05-18T15:51:49.740Z,4.03
2023-05-18T15:54:36.415Z,4.05
2023-05-18T15:57:22.396Z,3.75
2023-05-18T16:00:08.610Z,3.70
2023-05-18T16:03:00.556Z,3.58
2023-05-18T16:05:46.444Z,3.97
2023-05-18T16:08:32.215Z,3.88
2023-05-18T16:11:18.472Z,3.22
2023-05-18T16:14:05.222Z,3.08
2023-05-18T16:16:51.016Z,3.78
2023-05-18T16:19:36.936Z,3.92
2023-05-18T16:22:22.766Z,5.10
2023-05-18T16:25:09.323Z,3.70
2023-05-18T16:27:54.919Z,3.45
2023-05-18T16:30:41.248Z,4.20
2023-05-18T16:33:28.118Z,3.92
2023-05-18T16:36:14.346Z,3.95
2023-05-18T16:39:02.900Z,3.97
2023-05-18T16:41:48.263Z,4.57
2023-05-18T16:44:34.724Z,3.67
2023-05-18T16:47:22.918Z,3.90
2023-05-18T16:50:09.532Z,3.75
2023-05-18T16:52:55.002Z,3.85
2023-05-18T16:55:44.418Z,3.85
2023-05-18T16:58:31.312Z,4.65
2023-05-18T17:01:27.194Z,3.85
2023-05-18T17:04:14.150Z,4.13
2023-05-18T17:07:00.309Z,4.28
2023-05-18T17:09:46.168Z,3.75
2023-05-18T17:12:32.427Z,4.88
2023-05-18T17:15:18.437Z,4.18
2023-05-18T17:18:05.265Z,4.13
2023-05-18T17:20:51.566Z,4.50
2023-05-18T17:23:36.956Z,4.60
2023-05-18T17:26:22.950Z,5.18
2023-05-18T17:29:09.845Z,4.53
2023-05-18T17:31:55.903Z,5.07
2023-05-18T17:34:41.585Z,4.68
2023-05-18T17:37:27.832Z,4.72
2023-05-18T17:40:13.576Z,4.72
2023-05-18T17:42:59.441Z,4.97
2023-05-18T17:45:45.037Z,5.13
2023-05-18T17:48:30.524Z,5.95
2023-05-18T17:51:16.334Z,6.07
2023-05-18T17:54:01.734Z,6.68
2023-05-18T17:56:47.317Z,5.38
2023-05-18T17:59:32.935Z,4.65
2023-05-18T18:02:18.311Z,5.15
2023-05-18T18:05:04.539Z,5.00
2023-05-18T18:07:49.962Z,5.45
2023-05-18T18:10:35.731Z,5.03
2023-05-18T18:13:21.279Z,5.10
2023-05-18T18:16:06.836Z,5.93
2023-05-18T18:18:52.399Z,5.38
2023-05-18T18:21:37.748Z,5.82
2023-05-18T18:24:23.743Z,6.38
2023-05-18T18:27:10.447Z,8.85
2023-05-18T18:29:56.394Z,6.68
2023-05-18T18:32:41.703Z,6.00
2023-05-18T18:35:27.140Z,5.03
2023-05-18T18:38:15.237Z,4.65
2023-05-18T18:41:04.364Z,4.82
2023-05-18T18:43:54.068Z,6.07
2023-05-18T18:46:40.273Z,5.00
2023-05-18T18:49:26.521Z,4.82
2023-05-18T18:52:13.882Z,5.18
2023-05-18T18:54:59.866Z,5.45
2023-05-18T18:57:45.671Z,5.68
2023-05-18T19:00:31.668Z,9.23
2023-05-18T19:03:17.199Z,11.25
2023-05-18T19:06:02.580Z,7.88
2023-05-18T19:08:47.906Z,6.50
2023-05-18T19:11:33.200Z,5.60
2023-05-18T19:14:18.640Z,6.13
2023-05-18T19:17:04.372Z,10.35
2023-05-18T19:19:52.197Z,8.18
2023-05-18T19:22:37.674Z,5.30
2023-05-18T19:25:24.643Z,5.88
2023-05-18T19:28:12.213Z,6.75
2023-05-18T19:30:57.988Z,6.35
2023-05-18T19:33:43.595Z,6.10
2023-05-18T19:36:29.340Z,6.07
2023-05-18T19:39:20.436Z,5.80
2023-05-18T19:42:08.265Z,8.38
2023-05-18T19:44:56.472Z,8.27
2023-05-18T19:47:42.419Z,9.45
2023-05-18T19:50:29.230Z,6.93
2023-05-18T19:53:14.737Z,6.85
2023-05-18T19:56:01.258Z,6.20
2023-05-18T19:58:47.103Z,6.32
2023-05-18T20:01:32.580Z,6.47
2023-05-18T20:04:23.666Z,6.35
2023-05-18T20:07:09.742Z,6.60
2023-05-18T20:09:55.304Z,6.03
2023-05-18T20:12:40.717Z,5.82
2023-05-18T20:15:27.993Z,5.80
2023-05-18T20:18:13.234Z,6.43
2023-05-18T20:21:02.065Z,6.32
2023-05-18T20:23:48.169Z,6.82
2023-05-18T20:26:34.265Z,6.53
2023-05-18T20:29:19.973Z,6.35
2023-05-18T20:32:07.875Z,7.50
2023-05-18T20:34:53.167Z,6.85
2023-05-18T20:37:41.495Z,8.10
2023-05-18T20:40:30.822Z,6.88
2023-05-18T20:43:17.861Z,9.15
2023-05-18T20:46:08.098Z,7.68
2023-05-18T20:48:55.255Z,8.40
2023-05-18T20:51:41.469Z,7.28
2023-05-18T20:54:28.166Z,8.80
2023-05-18T20:57:14.279Z,7.68
2023-05-18T20:59:59.579Z,6.60
2023-05-18T21:02:46.704Z,7.03
2023-05-18T21:05:33.347Z,6.47
2023-05-18T21:08:18.864Z,7.47
2023-05-18T21:11:04.208Z,7.03
2023-05-18T21:13:49.636Z,7.15
2023-05-18T21:16:35.117Z,7.93
2023-05-18T21:19:21.080Z,7.55
2023-05-18T21:22:06.373Z,6.88
2023-05-18T21:24:51.678Z,6.70
2023-05-18T21:27:37.369Z,8.48
2023-05-18T21:30:23.039Z,6.88
2023-05-18T21:33:08.651Z,7.25
2023-05-18T21:35:54.330Z,7.85
2023-05-18T21:38:39.592Z,7.35
2023-05-18T21:41:24.966Z,8.57
2023-05-18T21:44:10.720Z,7.20
2023-05-18T21:46:57.955Z,7.68
2023-05-18T21:49:44.249Z,8.63
2023-05-18T21:52:30.556Z,8.68
2023-05-18T21:55:16.278Z,9.00
2023-05-18T21:58:01.468Z,9.02
2023-05-18T22:00:47.039Z,8.15
2023-05-18T22:03:32.395Z,10.65
2023-05-18T22:06:18.062Z,9.35
2023-05-18T22:09:04.272Z,9.15
2023-05-18T22:11:49.928Z,8.73
2023-05-18T22:14:35.876Z,8.07
2023-05-18T22:17:21.734Z,7.82
2023-05-18T22:20:09.503Z,8.13
2023-05-18T22:22:55.048Z,8.27
2023-05-18T22:25:40.707Z,7.47
2023-05-18T22:28:26.243Z,8.88
2023-05-18T22:31:11.908Z,6.88
2023-05-18T22:33:57.387Z,6.97
2023-05-18T22:36:42.945Z,6.65
2023-05-18T22:39:28.323Z,6.82
2023-05-18T22:42:13.739Z,8.70
2023-05-18T22:44:59.085Z,8.05
2023-05-18T22:47:45.309Z,8.18
2023-05-18T22:50:31.200Z,7.55
2023-05-18T22:53:16.663Z,6.75
2023-05-18T22:56:02.385Z,6.28
2023-05-18T22:58:48.074Z,7.13
2023-05-18T23:01:33.446Z,6.18
2023-05-18T23:04:19.674Z,6.00
2023-05-18T23:07:05.489Z,5.97
2023-05-18T23:09:52.318Z,5.88
2023-05-18T23:12:38.600Z,6.20
2023-05-18T23:15:24.318Z,6.35
2023-05-18T23:18:10.182Z,6.28
2023-05-18T23:20:55.784Z,5.38
2023-05-18T23:23:41.589Z,6.47
2023-05-18T23:26:27.642Z,5.57
2023-05-18T23:29:13.043Z,5.80
2023-05-18T23:31:58.414Z,5.43
2023-05-18T23:34:44.430Z,4.90
2023-05-18T23:37:32.404Z,4.70
2023-05-18T23:40:19.391Z,5.22
2023-05-18T23:43:05.018Z,4.30
2023-05-18T23:45:51.156Z,3.80
2023-05-18T23:48:36.725Z,4.63
2023-05-18T23:51:22.722Z,4.40
2023-05-18T23:54:09.448Z,4.28
2023-05-18T23:56:59.610Z,3.83
2023-05-18T23:59:45.671Z,4.82
